Fascination — C6FM9 — position and weather

sailwx.info

Track history (hours):
 
Tides and Currents Weather Stations Pressure Air Temp Water Temp Dewpoint Dewpoint Depression Visibility Wind Speed Wind Dir Waves Ship Positions

Fascination

Operator: Carnival Cruise Lines

Last reported at 2020-Aug-03 17:18 UTC. Time now 2020-Aug-09 23:45 UTC.
Position N 36°32' W 006°17'.

Type: Passenger vessel. MMSI: 309682000.

Date/timePositionNaut miles runAvg speedWind from/ knotsBaromVisibWave heightAir tempDewpointWater temp
2020-Aug-03 17:18N 36°32' W 006°17'0 0.0
2020-Aug-03 16:24N 36°32' W 006°17'0 0.0
2020-Aug-02 23:59N 36°32' W 006°17'0 0.0
2020-Aug-02 17:23N 36°32' W 006°17'0 0.0
2020-Aug-02 04:56N 36°32' W 006°17'0 0.0
2020-Aug-02 04:29N 36°32' W 006°17'0 0.0
2020-Aug-02 03:59N 36°32' W 006°17'0 0.0
2020-Aug-02 02:59N 36°32' W 006°17'0 0.0
2020-Aug-02 01:55N 36°32' W 006°17'0 0.0
2020-Aug-02 00:58N 36°32' W 006°17'0 0.0
2020-Aug-01 22:27N 36°32' W 006°17'0 0.0
2020-Aug-01 13:53N 36°32' W 006°17'0 0.0
2020-Aug-01 11:22N 36°32' W 006°17'1 0.0
2020-Jul-31 11:44N 36°33' W 006°16'  
2020-Jul-29 04:57N 36°30' W 006°42'6 3.2
2020-Jul-29 03:00N 36°24' W 006°42'15 7.5
2020-Jul-29 01:00N 36°11' W 006°32'6 3.8
2020-Jul-28 23:28N 36°05' W 006°31'6 1.5
2020-Jul-28 19:30N 36°08' W 006°37'4 1.7
2020-Jul-28 16:58N 36°09' W 006°43'1 0.8
2020-Jul-28 15:00N 36°10' W 006°44'2 0.8
2020-Jul-28 13:00N 36°12' W 006°44'2 1.5
2020-Jul-28 11:29N 36°14' W 006°44'1 1.6
2020-Jul-28 11:00N 36°15' W 006°44'1 1.6
2020-Jul-28 10:21N 36°16' W 006°44'1 1.7
2020-Jul-28 09:30N 36°17' W 006°45'6 2.0
2020-Jul-28 06:30N 36°22' W 006°50'2 1.7
2020-Jul-28 05:28N 36°23' W 006°51'4 0.9
2020-Jul-28 01:30N 36°24' W 006°56'1 0.6
2020-Jul-27 23:00N 36°23' W 006°58'1 0.2
2020-Jul-27 18:59N 36°23' W 006°58'1 0.4
2020-Jul-27 17:27N 36°24' W 006°59'0 0.6
2020-Jul-27 17:00N 36°24' W 006°59'0 0.5
2020-Jul-27 16:29N 36°24' W 006°59'0 0.8
2020-Jul-27 16:00N 36°25' W 006°58'0 0.9
2020-Jul-27 15:30N 36°25' W 006°58'0 1.0
2020-Jul-27 15:00N 36°26' W 006°58'1 1.0
2020-Jul-27 14:30N 36°26' W 006°58'3 1.0
2020-Jul-27 12:00N 36°28' W 006°60'3 1.6
2020-Jul-27 10:01N 36°29' W 007°04'1 1.2
2020-Jul-27 09:30N 36°29' W 007°05'1 1.0
2020-Jul-27 08:00N 36°29' W 007°03'9 6.3
2020-Jul-27 06:30N 36°37' W 006°56'9 7.0
2020-Jul-27 05:16N 36°44' W 007°02'1 0.9
2020-Jul-27 04:30N 36°44' W 007°02'2 1.5
2020-Jul-27 03:28N 36°42' W 007°03'1 1.5
2020-Jul-27 02:59N 36°41' W 007°02'3 1.5
2020-Jul-27 00:51N 36°39' W 007°00'6 1.3
2020-Jul-26 20:31N 36°35' W 006°55'1 0.5
2020-Jul-26 17:40N 36°36' W 006°56'0 0.4
2020-Jul-26 17:28N 36°36' W 006°56'1 0.6
2020-Jul-26 16:00N 36°36' W 006°57'0 0.5
2020-Jul-26 15:20N 36°36' W 006°58'2 0.5
2020-Jul-26 12:00N 36°37' W 006°60'0 0.4
2020-Jul-26 11:31N 36°37' W 006°60'0 0.1
2020-Jul-26 09:01N 36°37' W 007°00'0 0.3
2020-Jul-26 07:31N 36°37' W 007°00'1 0.3
2020-Jul-26 05:30N 36°38' W 007°00'3 0.9
2020-Jul-26 01:43N 36°41' W 006°57'11 0.7
2020-Jul-25 10:00N 36°45' W 007°10'25 9.8
2020-Jul-25 07:30N 36°21' W 007°11'0 0.2
2020-Jul-25 06:01N 36°21' W 007°11'1 1.0
2020-Jul-25 05:31N 36°21' W 007°11'1 1.1
2020-Jul-25 04:31N 36°22' W 007°11'1 1.2
2020-Jul-25 04:01N 36°23' W 007°11'2 1.0
2020-Jul-25 02:01N 36°25' W 007°12'9 1.6
2020-Jul-24 20:30N 36°25' W 007°01'  
Track history (hours):
 
Tides and Currents Weather Stations Pressure Air Temp Water Temp Dewpoint Dewpoint Depression Visibility Wind Speed Wind Dir Waves Ship Positions

Fascination

Operator: Carnival Cruise Lines

Last reported at 2020-Aug-03 17:18 UTC. Time now 2020-Aug-09 23:45 UTC.
Position N 36°32' W 006°17'.

Type: Passenger vessel. MMSI: 309682000.

Date/timePositionNaut miles runAvg speedWind from/ knotsBaromVisibWave heightAir tempDewpointWater temp
2020-Aug-03 17:18N 36°32' W 006°17'0 0.0
2020-Aug-03 16:24N 36°32' W 006°17'0 0.0
2020-Aug-02 23:59N 36°32' W 006°17'0 0.0
2020-Aug-02 17:23N 36°32' W 006°17'0 0.0
2020-Aug-02 04:56N 36°32' W 006°17'0 0.0
2020-Aug-02 04:29N 36°32' W 006°17'0 0.0
2020-Aug-02 03:59N 36°32' W 006°17'0 0.0
2020-Aug-02 02:59N 36°32' W 006°17'0 0.0
2020-Aug-02 01:55N 36°32' W 006°17'0 0.0
2020-Aug-02 00:58N 36°32' W 006°17'0 0.0
2020-Aug-01 22:27N 36°32' W 006°17'0 0.0
2020-Aug-01 13:53N 36°32' W 006°17'0 0.0
2020-Aug-01 11:22N 36°32' W 006°17'1 0.0
2020-Jul-31 11:44N 36°33' W 006°16'  
2020-Jul-29 04:57N 36°30' W 006°42'6 3.2
2020-Jul-29 03:00N 36°24' W 006°42'15 7.5
2020-Jul-29 01:00N 36°11' W 006°32'6 3.8
2020-Jul-28 23:28N 36°05' W 006°31'6 1.5
2020-Jul-28 19:30N 36°08' W 006°37'4 1.7
2020-Jul-28 16:58N 36°09' W 006°43'1 0.8
2020-Jul-28 15:00N 36°10' W 006°44'2 0.8
2020-Jul-28 13:00N 36°12' W 006°44'2 1.5
2020-Jul-28 11:29N 36°14' W 006°44'1 1.6
2020-Jul-28 11:00N 36°15' W 006°44'1 1.6
2020-Jul-28 10:21N 36°16' W 006°44'1 1.7
2020-Jul-28 09:30N 36°17' W 006°45'6 2.0
2020-Jul-28 06:30N 36°22' W 006°50'2 1.7
2020-Jul-28 05:28N 36°23' W 006°51'4 0.9
2020-Jul-28 01:30N 36°24' W 006°56'1 0.6
2020-Jul-27 23:00N 36°23' W 006°58'1 0.2
2020-Jul-27 18:59N 36°23' W 006°58'1 0.4
2020-Jul-27 17:27N 36°24' W 006°59'0 0.6
2020-Jul-27 17:00N 36°24' W 006°59'0 0.5
2020-Jul-27 16:29N 36°24' W 006°59'0 0.8
2020-Jul-27 16:00N 36°25' W 006°58'0 0.9
2020-Jul-27 15:30N 36°25' W 006°58'0 1.0
2020-Jul-27 15:00N 36°26' W 006°58'1 1.0
2020-Jul-27 14:30N 36°26' W 006°58'3 1.0
2020-Jul-27 12:00N 36°28' W 006°60'3 1.6
2020-Jul-27 10:01N 36°29' W 007°04'1 1.2
2020-Jul-27 09:30N 36°29' W 007°05'1 1.0
2020-Jul-27 08:00N 36°29' W 007°03'9 6.3
2020-Jul-27 06:30N 36°37' W 006°56'9 7.0
2020-Jul-27 05:16N 36°44' W 007°02'1 0.9
2020-Jul-27 04:30N 36°44' W 007°02'2 1.5
2020-Jul-27 03:28N 36°42' W 007°03'1 1.5
2020-Jul-27 02:59N 36°41' W 007°02'3 1.5
2020-Jul-27 00:51N 36°39' W 007°00'6 1.3
2020-Jul-26 20:31N 36°35' W 006°55'1 0.5
2020-Jul-26 17:40N 36°36' W 006°56'0 0.4
2020-Jul-26 17:28N 36°36' W 006°56'1 0.6
2020-Jul-26 16:00N 36°36' W 006°57'0 0.5
2020-Jul-26 15:20N 36°36' W 006°58'2 0.5
2020-Jul-26 12:00N 36°37' W 006°60'0 0.4
2020-Jul-26 11:31N 36°37' W 006°60'0 0.1
2020-Jul-26 09:01N 36°37' W 007°00'0 0.3
2020-Jul-26 07:31N 36°37' W 007°00'1 0.3
2020-Jul-26 05:30N 36°38' W 007°00'3 0.9
2020-Jul-26 01:43N 36°41' W 006°57'11 0.7
2020-Jul-25 10:00N 36°45' W 007°10'25 9.8
2020-Jul-25 07:30N 36°21' W 007°11'0 0.2
2020-Jul-25 06:01N 36°21' W 007°11'1 1.0
2020-Jul-25 05:31N 36°21' W 007°11'1 1.1
2020-Jul-25 04:31N 36°22' W 007°11'1 1.2
2020-Jul-25 04:01N 36°23' W 007°11'2 1.0
2020-Jul-25 02:01N 36°25' W 007°12'9 1.6
2020-Jul-24 20:30N 36°25' W 007°01'  

Dump ship's entire track history